Aransas Pass, Texas
Current Conditions -  °F | °C
As of 1:55 PM on Thursday 23 Oct 2014 (Local Time) from KTFP Reporting Station
Clear Clear  
Wind Chill: 28°   Ceiling: Unl
Heat Index: 28°   Visibility: 10mi
Dew Point: 17°   Wind: 8mph
Humidity: 52%   Direction: 90°E
Pressure: 30.07"   Gusts: NA
Location:  27.9°N, 97.15°W
Report Text: KTFP 231855Z AUTO 09007KT 10SM CLR 28/17 A3007 RMK AO2 T02750169
Loading
Personal Weather Stations






























Interactive Weather Map
Tropical Storm Tracking
New forecast layout! Learn more

10-Day Weather Forecast

Advertisements
Track Severe Weather on mobile